Time;durP1;ratioP1;P1;durP2;ratioP2;P2;SDS_P1;SDS_P2;PMS_P1;PMS_P2;Temp;Humidity;BMP_temperature;BMP_pressure;BME280_temperature;BME280_humidity;BME280_pressure;Samples;Min_cycle;Max_cycle;Signal;HPM_P1;HPM_P2
2021/06/06 00:01:13;;;;;;;13.52;8.63;;;;;;;20.69;51.38;99690.13;3442261;28;20062;-73
2021/06/06 00:02:55;;;;;;;14.88;9.20;;;;;;;20.66;51.58;99685.22;3430055;28;20450;-71
2021/06/06 00:04:43;;;;;;;13.30;9.18;;;;;;;20.64;51.70;99681.97;3415779;29;20043;-73
2021/06/06 00:06:31;;;;;;;15.38;8.82;;;;;;;20.68;52.07;99685.78;3428444;28;20536;-73
2021/06/06 00:08:12;;;;;;;11.02;7.95;;;;;;;20.68;51.89;99677.66;3429745;28;20054;-73
2021/06/06 00:09:52;;;;;;;11.57;8.60;;;;;;;20.68;51.42;99677.66;3429779;28;20426;-73
2021/06/06 00:11:37;;;;;;;19.23;8.43;;;;;;;20.69;51.55;99682.81;3434544;28;20049;-72
2021/06/06 00:13:19;;;;;;;10.20;7.63;;;;;;;20.68;51.56;99683.91;3428813;28;20098;-72
2021/06/06 00:15:01;;;;;;;12.80;8.75;;;;;;;20.68;51.58;99683.09;3439907;28;20043;-72
2021/06/06 00:16:47;;;;;;;10.32;7.20;;;;;;;20.71;51.78;99682.56;3429037;28;20090;-71
2021/06/06 00:18:30;;;;;;;15.40;9.02;;;;;;;20.73;51.77;99682.28;3405969;29;20047;-72
2021/06/06 00:20:12;;;;;;;12.67;8.93;;;;;;;20.73;51.74;99688.53;3424726;28;20054;-71
2021/06/06 00:21:55;;;;;;;15.38;9.23;;;;;;;20.70;51.67;99675.50;3430018;28;20097;-70
2021/06/06 00:23:36;;;;;;;16.35;9.65;;;;;;;20.71;51.47;99679.84;3415390;29;20130;-71
2021/06/06 00:25:16;;;;;;;12.27;9.73;;;;;;;20.66;51.82;99679.81;3426830;28;20453;-71
2021/06/06 00:26:58;;;;;;;19.07;9.93;;;;;;;20.63;51.69;99675.72;3429452;28;20051;-70
2021/06/06 00:28:40;;;;;;;16.73;9.57;;;;;;;20.61;52.04;99677.88;3419509;28;20132;-71
2021/06/06 00:30:21;;;;;;;12.73;9.13;;;;;;;20.58;51.86;99673.00;3440161;28;20497;-70
2021/06/06 00:32:04;;;;;;;12.35;9.02;;;;;;;20.54;52.11;99677.28;3442964;28;20409;-73
2021/06/06 00:33:46;;;;;;;12.43;8.20;;;;;;;20.52;52.05;99678.59;3443275;28;20579;-71
2021/06/06 00:35:27;;;;;;;13.30;8.52;;;;;;;20.49;52.03;99682.63;3443103;28;20038;-72
2021/06/06 00:37:09;;;;;;;20.85;9.00;;;;;;;20.46;51.91;99670.44;3428471;28;20039;-73
2021/06/06 00:38:53;;;;;;;16.80;9.02;;;;;;;20.45;52.24;99676.94;3425608;28;20035;-72
2021/06/06 00:40:37;;;;;;;13.30;8.67;;;;;;;20.42;51.96;99674.75;3439783;28;20038;-73
2021/06/06 00:42:21;;;;;;;9.77;7.97;;;;;;;20.40;52.33;99678.78;3442988;28;20046;-71
2021/06/06 00:44:05;;;;;;;12.95;8.30;;;;;;;20.37;51.99;99672.00;3428335;28;20057;-71
2021/06/06 00:45:48;;;;;;;10.18;8.68;;;;;;;20.35;51.94;99674.16;3440493;28;20070;-72
2021/06/06 00:47:30;;;;;;;15.30;8.65;;;;;;;20.36;52.04;99675.78;3428276;28;20077;-73
2021/06/06 00:49:11;;;;;;;11.77;7.90;;;;;;;20.35;52.21;99668.75;3438237;28;20034;-72
2021/06/06 00:50:55;;;;;;;14.48;8.57;;;;;;;20.34;52.36;99675.25;3425942;28;20517;-72
2021/06/06 00:52:37;;;;;;;11.50;7.82;;;;;;;20.34;52.08;99677.94;3414365;28;20043;-72
2021/06/06 00:54:29;;;;;;;15.48;7.72;;;;;;;20.35;52.66;99679.56;3402059;29;20043;-71
2021/06/06 00:56:15;;;;;;;17.30;8.10;;;;;;;20.33;52.69;99678.19;3400387;29;20047;-73
2021/06/06 00:57:58;;;;;;;17.95;9.15;;;;;;;20.30;52.31;99674.13;3411246;29;20488;-73
2021/06/06 00:59:42;;;;;;;12.93;8.38;;;;;;;20.30;52.92;99678.72;3411627;28;20058;-72
2021/06/06 01:01:25;;;;;;;12.70;7.72;;;;;;;20.29;52.70;99679.78;3423663;28;20051;-72
2021/06/06 01:03:07;;;;;;;16.05;7.75;;;;;;;20.27;52.77;99678.16;3425845;28;20054;-71
2021/06/06 01:04:48;;;;;;;12.23;7.28;;;;;;;20.29;52.85;99680.63;3439942;28;20042;-72
2021/06/06 01:06:32;;;;;;;11.05;6.78;;;;;;;20.35;52.99;99678.75;3442386;28;20034;-71
2021/06/06 01:08:16;;;;;;;9.77;7.28;;;;;;;20.40;52.84;99676.91;3427750;28;20128;-71
2021/06/06 01:10:00;;;;;;;10.43;7.63;;;;;;;20.46;52.75;99670.44;3412202;29;20047;-71
2021/06/06 01:12:05;;;;;;;11.93;7.53;;;;;;;20.55;52.47;99678.09;3423689;28;20043;-72
2021/06/06 01:14:06;;;;;;;10.98;6.38;;;;;;;20.56;52.24;99680.56;3427975;28;20125;-72
2021/06/06 01:16:09;;;;;;;12.95;7.45;;;;;;;20.62;52.33;99676.78;3423498;28;20106;-70
2021/06/06 01:18:28;;;;;;;15.88;7.97;;;;;;;20.61;52.35;99677.88;3420931;28;20442;-71
2021/06/06 01:20:49;;;;;;;11.93;8.07;;;;;;;20.57;52.05;99674.03;3414647;29;20051;-71
2021/06/06 01:22:46;;;;;;;15.52;8.77;;;;;;;20.59;52.25;99690.06;3396873;28;20061;-71
2021/06/06 01:24:40;;;;;;;13.70;7.88;;;;;;;20.60;52.21;99683.53;3427255;28;20129;-70
2021/06/06 01:26:53;;;;;;;14.35;7.65;;;;;;;20.62;52.23;99679.50;3439981;28;20034;-74
2021/06/06 01:28:47;;;;;;;11.35;7.90;;;;;;;20.64;52.26;99676.53;3411885;28;20173;-72
2021/06/06 01:30:32;;;;;;;14.75;8.75;;;;;;;20.61;51.88;99668.94;3413153;29;20137;-71
2021/06/06 01:32:51;;;;;;;11.43;7.70;;;;;;;20.63;52.11;99672.22;3401314;29;20043;-72
2021/06/06 01:34:32;;;;;;;15.90;8.45;;;;;;;20.59;51.99;99668.38;3412790;28;20059;-72
2021/06/06 01:36:38;;;;;;;11.15;7.45;;;;;;;20.61;52.18;99668.94;3401258;29;20408;-72
2021/06/06 01:38:35;;;;;;;10.82;6.93;;;;;;;20.65;52.23;99660.03;3427027;28;20418;-72
2021/06/06 01:40:21;;;;;;;10.88;7.32;;;;;;;20.66;52.10;99660.84;3414505;29;20074;-72
2021/06/06 01:42:07;;;;;;;10.88;7.38;;;;;;;20.73;52.10;99666.88;3410691;29;20126;-71
2021/06/06 01:43:51;;;;;;;9.27;6.53;;;;;;;20.81;52.13;99660.13;3410677;29;20075;-72
2021/06/06 01:45:36;;;;;;;9.27;6.93;;;;;;;20.87;51.94;99664.50;3398906;29;20056;-72
2021/06/06 01:47:24;;;;;;;10.13;7.93;;;;;;;20.89;51.86;99668.56;3410932;29;20122;-73
2021/06/06 01:49:06;;;;;;;13.43;8.60;;;;;;;20.86;51.87;99669.09;3412964;29;20050;-73
2021/06/06 01:51:00;;;;;;;15.55;8.30;;;;;;;20.82;52.03;99667.97;3412719;29;20047;-72
2021/06/06 01:52:43;;;;;;;13.02;8.38;;;;;;;20.79;51.54;99665.81;3400370;29;20110;-72
2021/06/06 01:54:27;;;;;;;13.35;8.05;;;;;;;20.73;52.11;99658.72;3401059;29;20090;-72
2021/06/06 01:56:11;;;;;;;14.45;8.05;;;;;;;20.70;52.03;99659.22;3412184;29;20094;-73
2021/06/06 01:58:04;;;;;;;12.38;8.35;;;;;;;20.66;51.97;99658.94;3427617;28;20109;-73
2021/06/06 02:00:08;;;;;;;15.75;7.35;;;;;;;20.64;51.99;99661.09;3428545;28;20138;-72
2021/06/06 02:01:58;;;;;;;9.40;7.20;;;;;;;20.63;52.33;99658.69;3421253;28;20153;-72
2021/06/06 02:03:40;;;;;;;11.00;7.55;;;;;;;20.62;52.26;99657.03;3406960;29;20051;-70
2021/06/06 02:05:28;;;;;;;9.90;7.97;;;;;;;20.60;52.52;99653.75;3429382;28;20035;-71
2021/06/06 02:07:17;;;;;;;7.90;6.33;;;;;;;20.61;52.41;99650.78;3429971;28;20042;-71
2021/06/06 02:08:59;;;;;;;8.45;6.47;;;;;;;20.63;52.56;99653.25;3417523;29;20769;-71
2021/06/06 02:11:13;;;;;;;13.45;6.72;;;;;;;20.64;52.46;99655.69;3414109;29;20103;-71
2021/06/06 02:13:05;;;;;;;9.13;6.22;;;;;;;20.65;52.31;99651.09;3392233;29;20426;-71
2021/06/06 02:14:47;;;;;;;9.05;6.82;;;;;;;20.63;52.44;99645.13;3404249;29;20053;-73
2021/06/06 02:16:40;;;;;;;10.55;6.95;;;;;;;20.64;52.22;99641.34;3410831;29;20078;-72
2021/06/06 02:18:30;;;;;;;9.60;6.85;;;;;;;20.66;52.57;99647.31;3426580;28;20042;-72
2021/06/06 02:20:14;;;;;;;11.05;6.90;;;;;;;20.67;52.49;99638.09;3425277;28;20054;-71
2021/06/06 02:22:03;;;;;;;7.68;6.43;;;;;;;20.69;52.39;99647.59;3424178;28;20394;-72
2021/06/06 02:23:49;;;;;;;9.15;7.70;;;;;;;20.71;52.42;99639.22;3425978;28;20073;-71
2021/06/06 02:25:31;;;;;;;12.95;8.52;;;;;;;20.72;52.23;99640.84;3412157;29;20181;-73
2021/06/06 02:27:28;;;;;;;10.57;7.15;;;;;;;20.73;52.61;99641.66;3422744;28;20050;-72
2021/06/06 02:29:33;;;;;;;9.23;7.13;;;;;;;20.73;52.66;99645.19;3412548;29;20589;-71
2021/06/06 02:31:34;;;;;;;10.65;7.15;;;;;;;20.77;52.47;99642.75;3414983;28;20055;-72
2021/06/06 02:33:27;;;;;;;10.38;6.90;;;;;;;20.73;52.69;99639.78;3413964;29;20129;-72
2021/06/06 02:35:39;;;;;;;8.20;6.60;;;;;;;20.76;52.55;99641.94;3413971;29;20138;-72
2021/06/06 02:37:40;;;;;;;9.50;7.05;;;;;;;20.80;52.18;99642.22;3414056;29;20043;-72
2021/06/06 02:39:27;;;;;;;11.23;6.97;;;;;;;20.78;52.67;99647.94;3414150;28;20050;-72
2021/06/06 02:41:32;;;;;;;10.82;6.28;;;;;;;20.85;52.38;99643.06;3412598;29;20057;-72
2021/06/06 02:43:29;;;;;;;8.38;6.93;;;;;;;20.86;52.62;99646.63;3413853;29;20043;-71
2021/06/06 02:45:23;;;;;;;8.23;6.63;;;;;;;20.89;52.12;99646.09;3414804;28;20043;-71
2021/06/06 02:47:07;;;;;;;8.27;6.85;;;;;;;20.89;52.22;99649.59;3413677;29;20055;-73
2021/06/06 02:48:59;;;;;;;8.93;6.13;;;;;;;20.89;52.22;99646.88;3398828;29;20067;-72
2021/06/06 02:50:46;;;;;;;8.45;6.55;;;;;;;20.91;52.56;99643.94;3415222;28;20063;-72
2021/06/06 02:52:44;;;;;;;8.70;6.20;;;;;;;20.99;52.53;99642.59;3426972;28;20043;-72
2021/06/06 02:54:42;;;;;;;8.88;5.78;;;;;;;21.03;52.37;99640.97;3400340;29;20553;-73
2021/06/06 02:56:35;;;;;;;9.70;6.32;;;;;;;21.04;52.38;99642.59;3413032;29;20047;-72
2021/06/06 02:58:29;;;;;;;12.52;7.00;;;;;;;21.08;52.02;99649.13;3406667;29;20103;-72
2021/06/06 03:00:15;;;;;;;9.50;6.15;;;;;;;21.10;51.99;99638.84;3424624;28;20157;-70
2021/06/06 03:02:07;;;;;;;8.43;6.13;;;;;;;21.18;51.84;99638.34;3413550;28;20138;-72
2021/06/06 03:03:49;;;;;;;10.93;6.53;;;;;;;21.21;52.05;99639.69;3398904;29;20099;-71
2021/06/06 03:05:45;;;;;;;10.00;6.88;;;;;;;21.27;51.73;99631.34;3400736;29;20044;-73
2021/06/06 03:07:34;;;;;;;11.20;6.65;;;;;;;21.31;51.78;99647.88;3399606;29;20059;-72
2021/06/06 03:09:18;;;;;;;8.60;6.20;;;;;;;21.38;51.60;99642.22;3413118;29;20043;-72
2021/06/06 03:11:07;;;;;;;11.73;6.25;;;;;;;21.43;51.74;99644.97;3413542;28;20047;-72
2021/06/06 03:12:49;;;;;;;7.88;6.35;;;;;;;21.46;51.58;99647.13;3413713;29;20043;-71
2021/06/06 03:14:32;;;;;;;8.45;6.63;;;;;;;21.46;51.76;99644.44;3404723;29;20043;-72
2021/06/06 03:16:19;;;;;;;9.43;5.85;;;;;;;21.45;51.62;99653.63;3417212;29;20134;-71
2021/06/06 03:18:08;;;;;;;9.07;7.00;;;;;;;21.43;51.93;99655.81;3416171;29;20047;-71
2021/06/06 03:19:52;;;;;;;8.48;6.53;;;;;;;21.41;51.76;99647.94;3413722;29;20051;-70
2021/06/06 03:21:37;;;;;;;11.98;6.45;;;;;;;21.38;52.03;99647.63;3413736;29;20518;-72
2021/06/06 03:23:24;;;;;;;9.02;5.95;;;;;;;21.41;52.10;99653.34;3401009;29;20203;-71
2021/06/06 03:25:17;;;;;;;10.73;5.88;;;;;;;21.41;52.12;99655.25;3427984;28;20094;-72
2021/06/06 03:26:58;;;;;;;10.07;6.38;;;;;;;21.41;51.93;99657.97;3402879;29;20047;-71
2021/06/06 03:28:41;;;;;;;9.88;6.18;;;;;;;21.39;51.83;99649.28;3414440;29;20058;-70
2021/06/06 03:30:37;;;;;;;8.45;5.88;;;;;;;21.40;51.90;99651.75;3413595;29;20126;-73
2021/06/06 03:32:30;;;;;;;6.80;6.10;;;;;;;21.39;52.25;99652.81;3402879;29;20047;-72
2021/06/06 03:34:12;;;;;;;10.23;6.20;;;;;;;21.37;52.23;99640.56;3415266;29;20398;-71
2021/06/06 03:36:07;;;;;;;10.57;6.70;;;;;;;21.39;51.87;99633.00;3429205;28;20047;-71
2021/06/06 03:37:48;;;;;;;8.15;6.53;;;;;;;21.40;51.60;99634.63;3429175;28;20394;-71
2021/06/06 03:39:35;;;;;;;9.68;6.32;;;;;;;21.44;51.83;99633.03;3427269;28;20457;-71
2021/06/06 03:41:20;;;;;;;10.80;7.07;;;;;;;21.46;51.56;99634.38;3430349;28;20049;-71
2021/06/06 03:43:07;;;;;;;8.65;6.50;;;;;;;21.47;51.89;99635.19;3442593;28;20057;-73
2021/06/06 03:44:47;;;;;;;8.35;6.65;;;;;;;21.47;51.60;99627.88;3421258;28;20031;-73
2021/06/06 03:46:31;;;;;;;11.23;6.45;;;;;;;21.51;51.58;99630.88;3413549;29;20082;-72
2021/06/06 03:48:14;;;;;;;11.63;6.78;;;;;;;21.53;51.50;99624.09;3415735;29;20130;-72
2021/06/06 03:49:55;;;;;;;9.27;6.27;;;;;;;21.60;51.45;99631.97;3413141;29;20047;-72
2021/06/06 03:51:37;;;;;;;8.88;6.30;;;;;;;21.63;51.37;99628.69;3416715;29;20076;-73
2021/06/06 03:53:20;;;;;;;12.80;6.57;;;;;;;21.66;51.44;99628.19;3425160;28;20074;-73
2021/06/06 03:55:04;;;;;;;9.18;6.20;;;;;;;21.69;51.51;99637.69;3428907;28;20062;-74
2021/06/06 03:56:49;;;;;;;11.45;6.70;;;;;;;21.73;51.46;99634.16;3429896;28;20054;-73
2021/06/06 03:58:31;;;;;;;9.25;5.50;;;;;;;21.75;51.38;99633.88;3428904;28;20125;-71
2021/06/06 04:00:18;;;;;;;11.70;7.30;;;;;;;21.80;51.58;99622.22;3419904;28;20537;-72
2021/06/06 04:02:07;;;;;;;9.07;5.55;;;;;;;21.84;51.12;99632.28;3415715;29;20047;-72
2021/06/06 04:03:50;;;;;;;16.35;6.20;;;;;;;21.87;51.08;99622.78;3416747;29;20039;-72
2021/06/06 04:05:33;;;;;;;10.85;6.72;;;;;;;21.90;51.20;99624.97;3420209;28;20038;-72
2021/06/06 04:07:16;;;;;;;6.63;5.88;;;;;;;21.93;51.29;99624.41;3414990;29;20051;-73
2021/06/06 04:08:56;;;;;;;6.73;5.33;;;;;;;21.96;51.10;99621.94;3426944;28;20093;-71
2021/06/06 04:10:38;;;;;;;8.38;6.00;;;;;;;21.95;51.27;99625.75;3429989;28;20106;-72
2021/06/06 04:12:21;;;;;;;11.15;6.45;;;;;;;22.01;51.16;99632.00;3442452;28;20651;-73
2021/06/06 04:14:02;;;;;;;8.53;5.07;;;;;;;22.03;50.91;99627.13;3431513;28;20097;-72
2021/06/06 04:15:43;;;;;;;8.27;7.10;;;;;;;22.08;50.87;99629.03;3429834;28;20113;-73
2021/06/06 04:17:24;;;;;;;5.93;4.90;;;;;;;22.13;50.86;99626.31;3429030;28;20039;-71
2021/06/06 04:19:06;;;;;;;8.68;5.70;;;;;;;22.16;51.01;99623.84;3422961;28;20556;-72
2021/06/06 04:20:52;;;;;;;8.32;5.97;;;;;;;22.21;50.87;99629.31;3415434;29;20122;-71
2021/06/06 04:22:34;;;;;;;14.02;5.25;;;;;;;22.27;50.65;99626.59;3416186;29;20161;-73
2021/06/06 04:24:17;;;;;;;14.23;6.75;;;;;;;22.32;50.65;99623.88;3403210;29;20423;-74
2021/06/06 04:26:03;;;;;;;6.93;5.75;;;;;;;22.37;50.54;99621.97;3427770;28;20074;-73
2021/06/06 04:27:46;;;;;;;10.57;5.95;;;;;;;22.44;50.48;99624.41;3429644;28;20047;-71
2021/06/06 04:29:28;;;;;;;8.52;6.22;;;;;;;22.46;50.50;99621.38;3425596;28;20039;-71
2021/06/06 04:31:13;;;;;;;9.32;7.05;;;;;;;22.51;50.33;99622.22;3416554;28;20047;-73
2021/06/06 04:32:55;;;;;;;10.80;7.03;;;;;;;22.53;50.27;99622.72;3415401;29;20051;-74
2021/06/06 04:34:36;;;;;;;7.95;6.22;;;;;;;22.56;50.36;99618.66;3415795;28;20113;-73
2021/06/06 04:36:17;;;;;;;11.30;5.88;;;;;;;22.57;49.92;99612.97;3428662;28;20047;-71
2021/06/06 04:37:59;;;;;;;;;;;;;;;22.67;50.13;99619.47;3426292;28;20042;-73
2021/06/06 04:39:41;;;;;;;6.30;4.95;;;;;;;22.67;50.02;99616.75;3429559;28;19914;-72
2021/06/06 04:41:23;;;;;;;10.68;6.13;;;;;;;22.72;49.98;99620.25;3428458;28;20119;-73
2021/06/06 04:43:04;;;;;;;13.50;8.38;;;;;;;22.75;49.98;99613.47;3425821;28;20208;-73
2021/06/06 04:44:46;;;;;;;10.45;8.68;;;;;;;22.79;49.89;99606.38;3425139;28;20509;-73
2021/06/06 04:46:27;;;;;;;14.70;7.82;;;;;;;22.84;49.71;99609.06;3426195;28;20047;-73
2021/06/06 04:48:16;;;;;;;9.43;6.90;;;;;;;22.92;49.80;99613.09;3429518;28;20114;-72
2021/06/06 04:50:00;;;;;;;10.75;6.38;;;;;;;22.92;49.70;99613.91;3415138;29;20050;-71
2021/06/06 04:51:43;;;;;;;10.13;5.55;;;;;;;22.93;49.44;99618.28;3421672;28;20042;-73
2021/06/06 04:53:30;;;;;;;7.03;5.32;;;;;;;22.94;49.61;99611.75;3441300;28;20046;-72
2021/06/06 04:55:19;;;;;;;9.00;5.05;;;;;;;22.97;49.57;99616.66;3428209;28;20053;-70
2021/06/06 04:57:01;;;;;;;8.38;4.97;;;;;;;22.99;49.53;99606.31;3426020;28;20050;-71
2021/06/06 04:58:47;;;;;;;7.45;5.38;;;;;;;23.10;49.39;99612.50;3429128;28;20047;-72
2021/06/06 05:00:31;;;;;;;9.55;5.40;;;;;;;23.16;49.21;99608.69;3415980;28;20043;-74
2021/06/06 05:02:12;;;;;;;10.95;5.55;;;;;;;23.23;49.14;99609.22;3416079;29;20047;-70
2021/06/06 05:03:58;;;;;;;28.17;11.07;;;;;;;23.31;48.91;99613.22;3414982;29;20035;-73
2021/06/06 05:05:40;;;;;;;12.50;9.10;;;;;;;23.36;48.98;99604.22;3413294;29;20043;-71
2021/06/06 05:07:24;;;;;;;23.65;16.67;;;;;;;23.41;48.92;99609.63;3401436;29;20574;-71
2021/06/06 05:09:08;;;;;;;13.30;9.27;;;;;;;23.47;48.43;99606.59;3411619;29;20137;-71
2021/06/06 05:10:51;;;;;;;10.35;6.82;;;;;;;23.54;48.69;99600.84;3399169;29;20516;-73
2021/06/06 05:12:33;;;;;;;12.88;7.35;;;;;;;23.60;48.77;99598.91;3414128;29;20046;-72
2021/06/06 05:14:15;;;;;;;8.77;5.88;;;;;;;23.66;48.42;99592.31;3398425;29;20060;-73
2021/06/06 05:15:59;;;;;;;10.35;6.30;;;;;;;23.73;48.37;99588.22;3413390;29;20466;-71
2021/06/06 05:17:43;;;;;;;7.95;5.32;;;;;;;23.79;48.35;99591.72;3414535;29;20047;-70
2021/06/06 05:19:23;;;;;;;5.80;5.10;;;;;;;23.81;48.16;99592.25;3414740;29;20513;-71
2021/06/06 05:21:07;;;;;;;7.10;5.63;;;;;;;23.84;48.09;99583.50;3414720;29;20058;-72
2021/06/06 05:22:49;;;;;;;7.90;4.85;;;;;;;23.94;48.04;99591.59;3412337;29;20154;-72
2021/06/06 05:24:31;;;;;;;9.13;5.60;;;;;;;24.01;48.05;99590.44;3411798;29;20522;-72
2021/06/06 05:26:13;;;;;;;14.98;8.07;;;;;;;24.08;47.92;99594.44;3414686;29;20156;-71
2021/06/06 05:27:57;;;;;;;6.75;5.38;;;;;;;24.10;47.72;99588.72;3415416;29;20067;-73
2021/06/06 05:29:37;;;;;;;9.83;5.47;;;;;;;24.11;47.70;99599.34;3410490;28;20483;-73
2021/06/06 05:31:20;;;;;;;12.80;5.40;;;;;;;24.10;47.68;99588.72;3401716;29;20050;-71
2021/06/06 05:33:01;;;;;;;9.23;5.32;;;;;;;24.10;47.89;99586.81;3398529;29;20074;-74
2021/06/06 05:34:43;;;;;;;8.95;4.75;;;;;;;24.14;47.67;99592.50;3401682;29;20510;-73
2021/06/06 05:36:24;;;;;;;9.90;5.22;;;;;;;24.18;47.46;99593.53;3402313;29;20058;-72
2021/06/06 05:38:07;;;;;;;5.73;5.00;;;;;;;24.24;47.49;99600.59;3402137;29;20047;-72
2021/06/06 05:39:48;;;;;;;8.13;4.43;;;;;;;24.28;47.42;99598.09;3407759;29;20090;-73
2021/06/06 05:41:29;;;;;;;7.57;4.70;;;;;;;24.28;47.33;99592.66;3412601;29;20126;-74
2021/06/06 05:43:12;;;;;;;7.28;4.85;;;;;;;24.28;47.31;99595.38;3402061;29;20051;-73
2021/06/06 05:44:52;;;;;;;11.25;4.43;;;;;;;24.24;47.18;99592.41;3389197;29;20680;-72
2021/06/06 05:46:34;;;;;;;6.97;4.67;;;;;;;24.20;47.30;99588.63;3399393;29;20095;-72
2021/06/06 05:48:16;;;;;;;14.23;7.78;;;;;;;24.19;47.23;99586.19;3401311;29;20087;-73
2021/06/06 05:49:57;;;;;;;17.60;11.90;;;;;;;24.19;47.33;99591.63;3402043;29;20400;-73
2021/06/06 05:51:45;;;;;;;26.80;17.52;;;;;;;24.17;47.31;99579.13;3401225;29;20056;-72
2021/06/06 05:53:29;;;;;;;15.52;11.80;;;;;;;24.20;47.40;99588.63;3414498;29;20047;-71
2021/06/06 05:55:10;;;;;;;10.30;7.63;;;;;;;24.26;47.09;99592.91;3410560;28;20035;-71
2021/06/06 05:56:51;;;;;;;9.93;6.38;;;;;;;24.33;46.86;99587.94;3401921;29;20042;-70
2021/06/06 05:58:33;;;;;;;6.73;4.60;;;;;;;24.38;46.59;99596.06;3401990;29;20043;-71
2021/06/06 06:00:23;;;;;;;7.53;4.32;;;;;;;24.43;46.72;99595.22;3410901;29;20529;-70
2021/06/06 06:02:05;;;;;;;5.15;4.45;;;;;;;24.47;46.63;99600.91;3414986;28;20526;-73
2021/06/06 06:03:46;;;;;;;7.65;3.78;;;;;;;24.49;46.39;99593.25;3415174;28;20050;-71
2021/06/06 06:05:27;;;;;;;3.73;3.40;;;;;;;24.51;46.41;99586.44;3413566;28;20047;-73
2021/06/06 06:07:07;;;;;;;4.90;3.60;;;;;;;24.50;46.24;99589.44;3413859;28;20043;-72
2021/06/06 06:08:48;;;;;;;5.23;3.30;;;;;;;24.46;46.18;99589.22;3415994;28;20035;-72
2021/06/06 06:10:30;;;;;;;3.67;3.20;;;;;;;24.45;46.55;99592.25;3415061;28;20043;-72
2021/06/06 06:12:11;;;;;;;8.73;3.97;;;;;;;24.44;46.40;99590.56;3421148;28;20031;-70
2021/06/06 06:13:52;;;;;;;5.20;3.40;;;;;;;24.44;46.46;99593.28;3428011;28;20522;-71
2021/06/06 06:15:41;;;;;;;5.65;3.33;;;;;;;24.47;46.23;99590.00;3412740;29;20051;-71
2021/06/06 06:17:21;;;;;;;4.87;3.50;;;;;;;24.50;46.15;99594.88;3413459;29;20054;-73
2021/06/06 06:19:04;;;;;;;3.83;3.33;;;;;;;24.54;46.28;99591.28;3414776;28;20070;-73
2021/06/06 06:20:47;;;;;;;3.63;3.10;;;;;;;24.58;46.15;99592.34;3423910;28;20121;-73
2021/06/06 06:22:28;;;;;;;4.30;3.27;;;;;;;24.61;46.09;99590.16;3428398;28;20038;-74
2021/06/06 06:24:11;;;;;;;5.80;3.83;;;;;;;24.61;45.79;99593.69;3425467;28;20650;-72
2021/06/06 06:25:52;;;;;;;5.13;3.90;;;;;;;24.61;45.67;99599.13;3424933;28;20057;-73
2021/06/06 06:27:33;;;;;;;3.97;3.60;;;;;;;24.62;46.14;99603.47;3415559;28;20047;-71
2021/06/06 06:29:23;;;;;;;4.47;3.60;;;;;;;24.63;46.13;99604.28;3426501;28;20039;-73
2021/06/06 06:31:15;;;;;;;4.35;3.72;;;;;;;24.66;46.04;99606.44;3420379;28;20433;-71
2021/06/06 06:33:06;;;;;;;5.57;3.70;;;;;;;24.67;45.98;99606.13;3413937;29;20047;-72
2021/06/06 06:34:48;;;;;;;3.90;3.03;;;;;;;24.69;45.88;99597.69;3414650;29;20052;-73
2021/06/06 06:36:29;;;;;;;7.00;3.87;;;;;;;24.72;45.80;99597.09;3413891;29;20047;-72
2021/06/06 06:38:10;;;;;;;5.05;3.95;;;;;;;24.78;45.82;99595.94;3415867;28;20043;-73
2021/06/06 06:39:51;;;;;;;4.03;3.50;;;;;;;24.85;45.98;99601.03;3427929;28;20118;-71
2021/06/06 06:41:34;;;;;;;6.35;4.50;;;;;;;24.89;45.89;99607.53;3413410;29;20134;-71
2021/06/06 06:43:15;;;;;;;6.07;3.50;;;;;;;24.95;45.74;99600.91;3425620;28;20098;-71
2021/06/06 06:44:55;;;;;;;4.67;3.47;;;;;;;25.01;45.48;99592.38;3426676;28;20042;-72
2021/06/06 06:46:36;;;;;;;8.00;3.57;;;;;;;25.07;45.66;99595.84;3425730;28;20127;-71
2021/06/06 06:48:23;;;;;;;5.47;3.78;;;;;;;25.12;45.58;99601.25;3426171;28;20293;-72
2021/06/06 06:50:06;;;;;;;6.40;3.90;;;;;;;25.15;45.77;99595.19;3427798;28;20138;-73
2021/06/06 06:51:47;;;;;;;6.45;3.53;;;;;;;25.16;45.62;99576.94;3415265;28;20507;-72
2021/06/06 06:53:28;;;;;;;5.97;3.90;;;;;;;25.22;45.56;99590.22;3413750;29;20046;-71
2021/06/06 06:55:15;;;;;;;8.10;3.83;;;;;;;25.26;45.35;99587.69;3414508;29;20050;-71
2021/06/06 06:56:56;;;;;;;6.95;3.95;;;;;;;25.33;45.16;99579.16;3414769;28;20051;-73
2021/06/06 06:58:37;;;;;;;4.87;3.87;;;;;;;25.43;45.09;99577.09;3426697;28;20109;-72
2021/06/06 07:00:24;;;;;;;11.77;10.65;;;;;;;25.58;45.36;99581.50;3426852;28;20042;-73
2021/06/06 07:02:06;;;;;;;11.02;7.10;;;;;;;25.67;44.93;99579.72;3424870;28;20070;-72
2021/06/06 07:03:47;;;;;;;22.53;14.73;;;;;;;25.77;44.80;99586.13;3422218;28;20035;-73
2021/06/06 07:05:28;;;;;;;14.00;9.50;;;;;;;25.81;44.52;99585.22;3414986;28;20057;-74
2021/06/06 07:07:08;;;;;;;12.80;8.10;;;;;;;25.85;44.64;99591.75;3417256;28;20476;-72
2021/06/06 07:08:49;;;;;;;7.77;6.40;;;;;;;25.86;44.49;99587.88;3429248;28;21028;-71
2021/06/06 07:10:33;;;;;;;8.18;4.97;;;;;;;25.88;44.42;99590.34;3438848;28;20042;-71
2021/06/06 07:12:13;;;;;;;6.75;5.25;;;;;;;25.91;44.55;99588.94;3440479;28;20072;-72
2021/06/06 07:13:54;;;;;;;23.50;4.60;;;;;;;25.91;44.41;99588.94;3420177;28;20558;-71
2021/06/06 07:15:36;;;;;;;6.10;4.05;;;;;;;25.93;44.24;99583.97;3417282;28;20142;-72
2021/06/06 07:17:17;;;;;;;7.47;3.50;;;;;;;25.96;44.26;99578.72;3425077;28;20109;-71
2021/06/06 07:18:58;;;;;;;7.57;4.13;;;;;;;26.02;44.36;99583.00;3428526;28;20043;-73
2021/06/06 07:20:40;;;;;;;13.20;3.97;;;;;;;26.10;44.26;99581.50;3427970;28;20039;-72
2021/06/06 07:22:21;;;;;;;10.73;4.22;;;;;;;26.16;43.94;99579.50;3427676;28;20181;-73
2021/06/06 07:24:02;;;;;;;8.03;3.63;;;;;;;26.20;43.89;99578.59;3427584;28;20501;-72
2021/06/06 07:25:45;;;;;;;5.53;3.85;;;;;;;26.20;43.86;99575.84;3427794;28;20073;-72
2021/06/06 07:27:26;;;;;;;5.93;3.45;;;;;;;26.22;43.85;99584.53;3427750;28;20401;-73
2021/06/06 07:29:10;;;;;;;6.32;3.47;;;;;;;26.23;44.12;99575.25;3433413;28;20177;-73
2021/06/06 07:30:54;;;;;;;2.88;2.67;;;;;;;26.22;43.77;99570.06;3441011;28;20038;-72
2021/06/06 07:32:36;;;;;;;4.93;3.08;;;;;;;26.23;44.08;99568.94;3440908;28;20100;-72
2021/06/06 07:34:17;;;;;;;4.13;3.70;;;;;;;26.23;43.69;99566.22;3441472;28;20046;-71
2021/06/06 07:35:58;;;;;;;5.85;3.70;;;;;;;26.21;43.81;99563.00;3441058;28;20057;-72
2021/06/06 07:37:39;;;;;;;3.92;3.40;;;;;;;26.20;44.04;99569.56;3439721;28;20047;-72
2021/06/06 07:39:20;;;;;;;5.90;4.05;;;;;;;26.18;44.05;99572.63;3439595;28;20054;-72
2021/06/06 07:41:02;;;;;;;5.87;3.47;;;;;;;26.19;44.24;99567.94;3440026;28;20641;-73
2021/06/06 07:42:43;;;;;;;4.57;3.97;;;;;;;26.23;44.13;99568.94;3441196;28;20588;-72
2021/06/06 07:44:24;;;;;;;7.63;4.60;;;;;;;26.26;44.06;99577.38;3428498;28;20114;-74
2021/06/06 07:46:05;;;;;;;7.67;3.70;;;;;;;26.35;44.04;99565.75;3427506;28;20059;-72
2021/06/06 07:47:47;;;;;;;4.27;3.50;;;;;;;26.48;43.60;99571.19;3427855;28;20050;-73
2021/06/06 07:49:28;;;;;;;3.08;2.78;;;;;;;26.66;43.46;99565.97;3415508;28;20065;-74
2021/06/06 07:51:08;;;;;;;3.50;3.20;;;;;;;26.83;43.09;99563.44;3428180;28;20043;-73
2021/06/06 07:52:49;;;;;;;4.32;2.65;;;;;;;26.93;43.18;99560.50;3427561;28;20109;-73
2021/06/06 07:54:30;;;;;;;6.97;3.50;;;;;;;26.96;42.88;99564.53;3427340;28;20137;-72
2021/06/06 07:56:11;;;;;;;9.07;3.53;;;;;;;27.01;42.46;99563.63;3427675;28;20482;-73
2021/06/06 07:57:52;;;;;;;9.47;3.70;;;;;;;27.05;42.83;99567.34;3427581;28;20473;-71
2021/06/06 07:59:35;;;;;;;4.60;3.20;;;;;;;27.13;42.67;99561.97;3433318;28;20045;-73
2021/06/06 08:01:16;;;;;;;5.50;3.15;;;;;;;27.22;42.75;99556.59;3444044;28;20053;-72
2021/06/06 08:02:57;;;;;;;7.17;3.73;;;;;;;27.23;42.32;99563.69;3453204;28;20034;-72
2021/06/06 08:04:38;;;;;;;8.55;3.95;;;;;;;27.20;42.51;99558.81;3447958;28;20094;-72
2021/06/06 08:06:20;;;;;;;3.40;3.10;;;;;;;27.13;42.44;99558.41;3452238;28;20022;-73
2021/06/06 08:08:01;;;;;;;5.32;2.85;;;;;;;27.03;42.66;99564.09;3445522;28;20035;-72
2021/06/06 08:09:42;;;;;;;6.22;3.50;;;;;;;26.93;42.80;99559.69;3456926;28;20053;-73
2021/06/06 08:11:23;;;;;;;5.03;3.10;;;;;;;26.86;42.76;99560.09;3441322;28;20494;-73
2021/06/06 08:13:05;;;;;;;3.53;3.22;;;;;;;26.85;42.77;99563.13;3441427;28;20034;-73